sensor_id;sensor_type;location;lat;lon;timestamp;pressure;altitude;pressure_sealevel;temperature;humidity
71043;BME280;58696;52.134;5.500;2023-04-25T00:00:57;101198.56;;;5.15;95.98
71043;BME280;58696;52.134;5.500;2023-04-25T00:03:23;101198.97;;;5.11;96.38
71043;BME280;58696;52.134;5.500;2023-04-25T00:05:53;101195.75;;;5.09;96.46
71043;BME280;58696;52.134;5.500;2023-04-25T00:08:23;101212.13;;;5.06;96.38
71043;BME280;58696;52.134;5.500;2023-04-25T00:10:52;101217.50;;;5.03;96.51
71043;BME280;58696;52.134;5.500;2023-04-25T00:13:18;101216.84;;;5.01;96.64
71043;BME280;58696;52.134;5.500;2023-04-25T00:15:48;101224.59;;;4.99;96.64
71043;BME280;58696;52.134;5.500;2023-04-25T00:18:17;101217.09;;;4.98;96.75
71043;BME280;58696;52.134;5.500;2023-04-25T00:20:46;101221.94;;;5.01;96.63
71043;BME280;58696;52.134;5.500;2023-04-25T00:23:16;101224.47;;;5.01;96.60
71043;BME280;58696;52.134;5.500;2023-04-25T00:25:45;101233.03;;;5.00;96.51
71043;BME280;58696;52.134;5.500;2023-04-25T00:28:15;101226.88;;;5.03;96.56
71043;BME280;58696;52.134;5.500;2023-04-25T00:30:42;101230.47;;;5.00;96.54
71043;BME280;58696;52.134;5.500;2023-04-25T00:33:11;101227.44;;;4.96;96.58
71043;BME280;58696;52.134;5.500;2023-04-25T00:35:42;101232.38;;;4.98;96.63
71043;BME280;58696;52.134;5.500;2023-04-25T00:38:09;101235.56;;;5.00;96.85
71043;BME280;58696;52.134;5.500;2023-04-25T00:40:35;101235.47;;;5.01;96.94
71043;BME280;58696;52.134;5.500;2023-04-25T00:43:02;101222.59;;;5.03;96.63
71043;BME280;58696;52.134;5.500;2023-04-25T00:45:31;101242.81;;;5.05;96.66
71043;BME280;58696;52.134;5.500;2023-04-25T00:48:02;101231.84;;;5.04;96.60
71043;BME280;58696;52.134;5.500;2023-04-25T00:50:33;101231.84;;;5.04;96.71
71043;BME280;58696;52.134;5.500;2023-04-25T00:53:02;101238.66;;;5.04;96.40
71043;BME280;58696;52.134;5.500;2023-04-25T00:55:30;101227.81;;;5.01;96.54
71043;BME280;58696;52.134;5.500;2023-04-25T00:57:57;101225.69;;;5.07;96.45
71043;BME280;58696;52.134;5.500;2023-04-25T01:00:24;101232.09;;;5.11;96.24
71043;BME280;58696;52.134;5.500;2023-04-25T01:02:58;101229.41;;;5.12;96.04
71043;BME280;58696;52.134;5.500;2023-04-25T01:05:32;101229.41;;;5.12;95.86
71043;BME280;58696;52.134;5.500;2023-04-25T01:08:01;101230.38;;;5.11;95.66
71043;BME280;58696;52.134;5.500;2023-04-25T01:10:27;101231.28;;;5.10;95.70
71043;BME280;58696;52.134;5.500;2023-04-25T01:12:56;101235.56;;;5.10;95.51
71043;BME280;58696;52.134;5.500;2023-04-25T01:15:22;101240.28;;;5.05;95.74
71043;BME280;58696;52.134;5.500;2023-04-25T01:17:54;101239.63;;;5.03;95.50
71043;BME280;58696;52.134;5.500;2023-04-25T01:20:22;101242.16;;;5.03;95.31
71043;BME280;58696;52.134;5.500;2023-04-25T01:22:51;101244.72;;;5.03;95.43
71043;BME280;58696;52.134;5.500;2023-04-25T01:25:19;101244.16;;;4.99;95.17
71043;BME280;58696;52.134;5.500;2023-04-25T01:27:49;101247.66;;;4.98;95.31
71043;BME280;58696;52.134;5.500;2023-04-25T01:30:15;101245.66;;;4.92;95.30
71043;BME280;58696;52.134;5.500;2023-04-25T01:32:44;101250.34;;;4.87;95.22
71043;BME280;58696;52.134;5.500;2023-04-25T01:35:12;101256.91;;;4.80;95.09
71043;BME280;58696;52.134;5.500;2023-04-25T01:37:41;101258.13;;;4.75;95.30
71043;BME280;58696;52.134;5.500;2023-04-25T01:40:11;101261.06;;;4.71;95.42
71043;BME280;58696;52.134;5.500;2023-04-25T01:42:40;101262.13;;;4.59;95.10
71043;BME280;58696;52.134;5.500;2023-04-25T01:45:08;101264.91;;;4.56;95.61
71043;BME280;58696;52.134;5.500;2023-04-25T01:47:39;101268.69;;;4.52;95.44
71043;BME280;58696;52.134;5.500;2023-04-25T01:50:09;101266.25;;;4.50;95.38
71043;BME280;58696;52.134;5.500;2023-04-25T01:52:36;101263.81;;;4.39;95.44
71043;BME280;58696;52.134;5.500;2023-04-25T01:55:03;101264.22;;;4.34;95.42
71043;BME280;58696;52.134;5.500;2023-04-25T01:57:32;101264.22;;;4.34;95.42
71043;BME280;58696;52.134;5.500;2023-04-25T02:00:00;101270.63;;;4.29;95.66
71043;BME280;58696;52.134;5.500;2023-04-25T02:02:30;101274.38;;;4.25;95.79
71043;BME280;58696;52.134;5.500;2023-04-25T02:04:59;101270.47;;;4.20;95.76
71043;BME280;58696;52.134;5.500;2023-04-25T02:07:30;101279.06;;;4.19;95.80
71043;BME280;58696;52.134;5.500;2023-04-25T02:10:00;101282.41;;;4.20;95.95
71043;BME280;58696;52.134;5.500;2023-04-25T02:12:27;101285.06;;;4.18;95.91
71043;BME280;58696;52.134;5.500;2023-04-25T02:14:57;101278.63;;;4.14;95.99
71043;BME280;58696;52.134;5.500;2023-04-25T02:17:23;101285.56;;;4.12;95.83
71043;BME280;58696;52.134;5.500;2023-04-25T02:19:50;101277.53;;;4.07;95.74
71043;BME280;58696;52.134;5.500;2023-04-25T02:22:17;101289.94;;;4.01;95.64
71043;BME280;58696;52.134;5.500;2023-04-25T02:24:46;101287.53;;;3.99;95.68
71043;BME280;58696;52.134;5.500;2023-04-25T02:27:18;101291.97;;;3.97;95.56
71043;BME280;58696;52.134;5.500;2023-04-25T02:29:44;101283.34;;;3.88;95.58
71043;BME280;58696;52.134;5.500;2023-04-25T02:32:15;101283.59;;;3.85;95.55
71043;BME280;58696;52.134;5.500;2023-04-25T02:34:44;101293.75;;;3.85;95.54
71043;BME280;58696;52.134;5.500;2023-04-25T02:37:13;101290.56;;;3.83;95.39
71043;BME280;58696;52.134;5.500;2023-04-25T02:39:40;101297.75;;;3.78;95.43
71043;BME280;58696;52.134;5.500;2023-04-25T02:42:06;101292.94;;;3.75;95.38
71043;BME280;58696;52.134;5.500;2023-04-25T02:44:33;101290.75;;;3.71;95.49
71043;BME280;58696;52.134;5.500;2023-04-25T02:46:59;101293.25;;;3.61;95.31
71043;BME280;58696;52.134;5.500;2023-04-25T02:49:29;101293.91;;;3.63;95.60
71043;BME280;58696;52.134;5.500;2023-04-25T02:51:55;101292.31;;;3.62;95.43
71043;BME280;58696;52.134;5.500;2023-04-25T02:54:25;101294.63;;;3.65;95.38
71043;BME280;58696;52.134;5.500;2023-04-25T02:56:51;101296.88;;;3.68;95.72
71043;BME280;58696;52.134;5.500;2023-04-25T02:59:25;101296.22;;;3.66;95.51
71043;BME280;58696;52.134;5.500;2023-04-25T03:01:56;101293.03;;;3.74;95.62
71043;BME280;58696;52.134;5.500;2023-04-25T03:04:23;101297.63;;;3.80;95.35
71043;BME280;58696;52.134;5.500;2023-04-25T03:06:50;101296.44;;;3.84;95.68
71043;BME280;58696;52.134;5.500;2023-04-25T03:09:19;101306.22;;;3.88;95.68
71043;BME280;58696;52.134;5.500;2023-04-25T03:11:46;101299.03;;;3.93;95.85
71043;BME280;58696;52.134;5.500;2023-04-25T03:14:13;101303.44;;;3.91;95.96
71043;BME280;58696;52.134;5.500;2023-04-25T03:16:44;101301.00;;;3.90;95.55
71043;BME280;58696;52.134;5.500;2023-04-25T03:19:11;101303.94;;;3.85;95.71
71043;BME280;58696;52.134;5.500;2023-04-25T03:21:40;101301.78;;;3.81;95.77
71043;BME280;58696;52.134;5.500;2023-04-25T03:24:06;101307.78;;;3.80;95.76
71043;BME280;58696;52.134;5.500;2023-04-25T03:26:35;101305.00;;;3.83;95.86
71043;BME280;58696;52.134;5.500;2023-04-25T03:29:04;101301.78;;;3.81;95.84
71043;BME280;58696;52.134;5.500;2023-04-25T03:31:31;101310.09;;;3.83;95.77
71043;BME280;58696;52.134;5.500;2023-04-25T03:33:58;101313.19;;;3.86;95.68
71043;BME280;58696;52.134;5.500;2023-04-25T03:36:24;101316.41;;;3.88;95.59
71043;BME280;58696;52.134;5.500;2023-04-25T03:38:53;101321.34;;;3.90;95.75
71043;BME280;58696;52.134;5.500;2023-04-25T03:41:27;101320.31;;;3.92;95.63
71043;BME280;58696;52.134;5.500;2023-04-25T03:43:59;101329.69;;;3.92;95.42
71043;BME280;58696;52.134;5.500;2023-04-25T03:46:28;101320.97;;;3.94;95.61
71043;BME280;58696;52.134;5.500;2023-04-25T03:48:54;101328.47;;;3.96;95.62
71043;BME280;58696;52.134;5.500;2023-04-25T03:51:21;101331.81;;;3.96;95.86
71043;BME280;58696;52.134;5.500;2023-04-25T03:53:48;101326.34;;;4.01;95.77
71043;BME280;58696;52.134;5.500;2023-04-25T03:56:15;101331.06;;;4.06;95.39
71043;BME280;58696;52.134;5.500;2023-04-25T03:58:44;101326.69;;;4.08;95.68
71043;BME280;58696;52.134;5.500;2023-04-25T04:01:11;101332.16;;;4.13;95.63
71043;BME280;58696;52.134;5.500;2023-04-25T04:03:37;101329.38;;;4.16;95.53
71043;BME280;58696;52.134;5.500;2023-04-25T04:06:05;101335.94;;;4.18;95.18
71043;BME280;58696;52.134;5.500;2023-04-25T04:08:32;101330.97;;;4.17;95.13
71043;BME280;58696;52.134;5.500;2023-04-25T04:10:59;101336.75;;;4.19;95.16
71043;BME280;58696;52.134;5.500;2023-04-25T04:13:30;101335.13;;;4.18;94.77
71043;BME280;58696;52.134;5.500;2023-04-25T04:15:57;101335.81;;;4.20;95.03
71043;BME280;58696;52.134;5.500;2023-04-25T04:18:24;101340.78;;;4.21;94.93
71043;BME280;58696;52.134;5.500;2023-04-25T04:20:55;101335.31;;;4.26;94.47
71043;BME280;58696;52.134;5.500;2023-04-25T04:23:27;101339.22;;;4.30;94.40
71043;BME280;58696;52.134;5.500;2023-04-25T04:25:56;101351.66;;;4.33;93.97
71043;BME280;58696;52.134;5.500;2023-04-25T04:28:23;101347.78;;;4.39;93.84
71043;BME280;58696;52.134;5.500;2023-04-25T04:30:52;101344.06;;;4.43;93.52
71043;BME280;58696;52.134;5.500;2023-04-25T04:33:18;101341.38;;;4.44;92.84
71043;BME280;58696;52.134;5.500;2023-04-25T04:35:50;101340.34;;;4.47;92.88
71043;BME280;58696;52.134;5.500;2023-04-25T04:38:19;101341.81;;;4.49;92.64
71043;BME280;58696;52.134;5.500;2023-04-25T04:40:49;101355.88;;;4.54;92.39
71043;BME280;58696;52.134;5.500;2023-04-25T04:43:16;101353.09;;;4.57;92.32
71043;BME280;58696;52.134;5.500;2023-04-25T04:45:43;101352.81;;;4.60;92.21
71043;BME280;58696;52.134;5.500;2023-04-25T04:48:11;101359.25;;;4.64;92.31
71043;BME280;58696;52.134;5.500;2023-04-25T04:50:42;101359.13;;;4.65;92.01
71043;BME280;58696;52.134;5.500;2023-04-25T04:53:11;101370.81;;;4.68;91.62
71043;BME280;58696;52.134;5.500;2023-04-25T04:55:38;101371.72;;;4.67;91.45
71043;BME280;58696;52.134;5.500;2023-04-25T04:58:09;101376.56;;;4.70;91.30
71043;BME280;58696;52.134;5.500;2023-04-25T05:00:35;101380.47;;;4.74;91.40
71043;BME280;58696;52.134;5.500;2023-04-25T05:03:02;101384.63;;;4.75;91.19
71043;BME280;58696;52.134;5.500;2023-04-25T05:05:29;101382.75;;;4.77;90.88
71043;BME280;58696;52.134;5.500;2023-04-25T05:07:55;101388.38;;;4.81;91.04
71043;BME280;58696;52.134;5.500;2023-04-25T05:10:23;101385.69;;;4.82;90.70
71043;BME280;58696;52.134;5.500;2023-04-25T05:12:52;101390.66;;;4.84;90.35
71043;BME280;58696;52.134;5.500;2023-04-25T05:15:20;101393.75;;;4.87;90.00
71043;BME280;58696;52.134;5.500;2023-04-25T05:17:46;101397.78;;;4.90;89.67
71043;BME280;58696;52.134;5.500;2023-04-25T05:20:15;101395.25;;;4.90;89.48
71043;BME280;58696;52.134;5.500;2023-04-25T05:22:44;101408.50;;;4.93;89.29
71043;BME280;58696;52.134;5.500;2023-04-25T05:25:10;101410.00;;;4.96;88.75
71043;BME280;58696;52.134;5.500;2023-04-25T05:27:40;101416.56;;;4.98;88.32
71043;BME280;58696;52.134;5.500;2023-04-25T05:30:07;101412.69;;;5.04;88.03
71043;BME280;58696;52.134;5.500;2023-04-25T05:32:35;101419.13;;;5.08;88.50
71043;BME280;58696;52.134;5.500;2023-04-25T05:35:04;101421.44;;;5.11;88.24
71043;BME280;58696;52.134;5.500;2023-04-25T05:37:36;101426.25;;;5.14;88.47
71043;BME280;58696;52.134;5.500;2023-04-25T05:40:02;101426.09;;;5.16;88.22
71043;BME280;58696;52.134;5.500;2023-04-25T05:42:32;101428.25;;;5.20;88.46
71043;BME280;58696;52.134;5.500;2023-04-25T05:45:01;101418.47;;;5.25;88.15
71043;BME280;58696;52.134;5.500;2023-04-25T05:47:28;101428.13;;;5.32;87.83
71043;BME280;58696;52.134;5.500;2023-04-25T05:49:57;101429.34;;;5.37;87.86
71043;BME280;58696;52.134;5.500;2023-04-25T05:52:23;101425.22;;;5.46;87.84
71043;BME280;58696;52.134;5.500;2023-04-25T05:54:51;101435.13;;;5.59;87.91
71043;BME280;58696;52.134;5.500;2023-04-25T05:57:22;101434.59;;;5.74;87.47
71043;BME280;58696;52.134;5.500;2023-04-25T05:59:49;101446.66;;;6.21;86.46
71043;BME280;58696;52.134;5.500;2023-04-25T06:02:17;101444.66;;;6.15;85.58
71043;BME280;58696;52.134;5.500;2023-04-25T06:04:44;101444.66;;;6.05;85.57
71043;BME280;58696;52.134;5.500;2023-04-25T06:07:11;101446.13;;;5.98;85.88
71043;BME280;58696;52.134;5.500;2023-04-25T06:09:39;101450.31;;;5.99;85.55
71043;BME280;58696;52.134;5.500;2023-04-25T06:12:08;101458.22;;;6.05;85.85
71043;BME280;58696;52.134;5.500;2023-04-25T06:14:37;101464.63;;;6.19;86.11
71043;BME280;58696;52.134;5.500;2023-04-25T06:17:06;101472.97;;;6.21;85.60
71043;BME280;58696;52.134;5.500;2023-04-25T06:19:35;101466.50;;;6.27;85.45
71043;BME280;58696;52.134;5.500;2023-04-25T06:22:02;101471.59;;;6.37;84.69
71043;BME280;58696;52.134;5.500;2023-04-25T06:24:31;101469.34;;;7.61;81.88
71043;BME280;58696;52.134;5.500;2023-04-25T06:26:57;101468.09;;;8.61;78.85
71043;BME280;58696;52.134;5.500;2023-04-25T06:29:29;101466.41;;;10.02;72.39
71043;BME280;58696;52.134;5.500;2023-04-25T06:31:58;101467.75;;;10.62;70.37
71043;BME280;58696;52.134;5.500;2023-04-25T06:34:25;101465.25;;;11.39;67.61
71043;BME280;58696;52.134;5.500;2023-04-25T06:36:55;101467.72;;;11.01;65.13
71043;BME280;58696;52.134;5.500;2023-04-25T06:39:22;101464.56;;;10.91;65.35
71043;BME280;58696;52.134;5.500;2023-04-25T06:41:55;101472.16;;;10.04;66.48
71043;BME280;58696;52.134;5.500;2023-04-25T06:44:27;101476.31;;;9.23;68.97
71043;BME280;58696;52.134;5.500;2023-04-25T06:46:55;101490.25;;;8.71;71.21
71043;BME280;58696;52.134;5.500;2023-04-25T06:49:27;101494.25;;;8.39;72.77
71043;BME280;58696;52.134;5.500;2023-04-25T06:51:56;101487.75;;;8.09;74.30
71043;BME280;58696;52.134;5.500;2023-04-25T06:54:22;101488.50;;;8.01;76.29
71043;BME280;58696;52.134;5.500;2023-04-25T06:56:51;101485.75;;;7.95;74.96
71043;BME280;58696;52.134;5.500;2023-04-25T06:59:17;101490.00;;;7.68;74.37
71043;BME280;58696;52.134;5.500;2023-04-25T07:01:44;101494.97;;;7.70;75.05
71043;BME280;58696;52.134;5.500;2023-04-25T07:04:12;101493.84;;;8.08;75.59
71043;BME280;58696;52.134;5.500;2023-04-25T07:06:41;101497.25;;;8.68;73.80
71043;BME280;58696;52.134;5.500;2023-04-25T07:09:11;101496.72;;;8.57;72.37
71043;BME280;58696;52.134;5.500;2023-04-25T07:11:39;101496.91;;;8.11;72.58
71043;BME280;58696;52.134;5.500;2023-04-25T07:14:06;101503.34;;;8.15;74.02
71043;BME280;58696;52.134;5.500;2023-04-25T07:16:35;101510.47;;;8.30;73.73
71043;BME280;58696;52.134;5.500;2023-04-25T07:19:04;101512.19;;;8.47;72.51
71043;BME280;58696;52.134;5.500;2023-04-25T07:21:33;101516.47;;;8.64;71.53
71043;BME280;58696;52.134;5.500;2023-04-25T07:24:02;101520.63;;;10.15;67.61
71043;BME280;58696;52.134;5.500;2023-04-25T07:26:29;101505.00;;;11.05;65.40
71043;BME280;58696;52.134;5.500;2023-04-25T07:28:56;101520.84;;;12.61;62.37
71043;BME280;58696;52.134;5.500;2023-04-25T07:31:25;101517.31;;;12.62;55.33
71043;BME280;58696;52.134;5.500;2023-04-25T07:33:54;101521.38;;;12.71;58.14
71043;BME280;58696;52.134;5.500;2023-04-25T07:36:23;101524.88;;;12.11;56.96
71043;BME280;58696;52.134;5.500;2023-04-25T07:38:50;101514.66;;;12.03;55.87
71043;BME280;58696;52.134;5.500;2023-04-25T07:41:16;101526.63;;;10.79;59.39
71043;BME280;58696;52.134;5.500;2023-04-25T07:43:43;101523.69;;;10.35;63.28
71043;BME280;58696;52.134;5.500;2023-04-25T07:46:10;101529.31;;;9.98;65.01
71043;BME280;58696;52.134;5.500;2023-04-25T07:48:36;101541.97;;;9.59;65.41
71043;BME280;58696;52.134;5.500;2023-04-25T07:51:03;101540.22;;;9.09;66.44
71043;BME280;58696;52.134;5.500;2023-04-25T07:53:33;101543.88;;;8.98;66.94
71043;BME280;58696;52.134;5.500;2023-04-25T07:56:01;101552.84;;;9.53;64.50
71043;BME280;58696;52.134;5.500;2023-04-25T07:58:30;101555.91;;;9.06;63.90
71043;BME280;58696;52.134;5.500;2023-04-25T08:00:56;101559.00;;;8.83;64.23
71043;BME280;58696;52.134;5.500;2023-04-25T08:03:23;101557.66;;;9.05;63.81
71043;BME280;58696;52.134;5.500;2023-04-25T08:05:52;101556.13;;;9.20;64.29
71043;BME280;58696;52.134;5.500;2023-04-25T08:08:19;101559.81;;;10.17;61.03
71043;BME280;58696;52.134;5.500;2023-04-25T08:10:46;101565.25;;;10.71;59.67
71043;BME280;58696;52.134;5.500;2023-04-25T08:13:14;101567.16;;;10.69;57.87
71043;BME280;58696;52.134;5.500;2023-04-25T08:15:40;101563.84;;;10.44;58.36
71043;BME280;58696;52.134;5.500;2023-04-25T08:18:07;101564.16;;;10.17;60.58
71043;BME280;58696;52.134;5.500;2023-04-25T08:20:36;101590.00;;;10.07;59.88
71043;BME280;58696;52.134;5.500;2023-04-25T08:23:03;101577.81;;;10.25;60.42
71043;BME280;58696;52.134;5.500;2023-04-25T08:25:34;101581.78;;;9.87;61.56
71043;BME280;58696;52.134;5.500;2023-04-25T08:28:00;101599.84;;;9.11;63.46
71043;BME280;58696;52.134;5.500;2023-04-25T08:30:31;101600.72;;;8.67;64.47
71043;BME280;58696;52.134;5.500;2023-04-25T08:33:00;101602.31;;;8.07;65.46
71043;BME280;58696;52.134;5.500;2023-04-25T08:35:27;101602.47;;;8.05;67.37
71043;BME280;58696;52.134;5.500;2023-04-25T08:37:53;101610.03;;;8.15;68.70
71043;BME280;58696;52.134;5.500;2023-04-25T08:40:22;101606.97;;;8.29;68.31
71043;BME280;58696;52.134;5.500;2023-04-25T08:42:56;101617.53;;;8.44;66.46
71043;BME280;58696;52.134;5.500;2023-04-25T08:45:27;101613.38;;;8.69;66.41
71043;BME280;58696;52.134;5.500;2023-04-25T08:47:57;101628.25;;;8.91;65.42
71043;BME280;58696;52.134;5.500;2023-04-25T08:50:26;101620.09;;;8.96;64.33
71043;BME280;58696;52.134;5.500;2023-04-25T08:52:59;101621.75;;;8.97;62.35
71043;BME280;58696;52.134;5.500;2023-04-25T08:55:30;101629.84;;;9.61;62.87
71043;BME280;58696;52.134;5.500;2023-04-25T08:58:00;101631.66;;;9.77;62.77
71043;BME280;58696;52.134;5.500;2023-04-25T09:00:29;101634.59;;;9.90;60.41
71043;BME280;58696;52.134;5.500;2023-04-25T09:02:59;101640.56;;;10.07;61.00
71043;BME280;58696;52.134;5.500;2023-04-25T09:05:28;101632.56;;;10.50;61.83
71043;BME280;58696;52.134;5.500;2023-04-25T09:07:55;101640.28;;;10.59;60.18
71043;BME280;58696;52.134;5.500;2023-04-25T09:10:22;101645.66;;;11.04;60.11
71043;BME280;58696;52.134;5.500;2023-04-25T09:13:10;101648.75;;;11.39;59.63
71043;BME280;58696;52.134;5.500;2023-04-25T09:15:50;101655.13;;;11.20;59.08
71043;BME280;58696;52.134;5.500;2023-04-25T09:21:10;101658.31;;;11.22;55.99
71043;BME280;58696;52.134;5.500;2023-04-25T09:23:49;101666.41;;;11.58;57.51
71043;BME280;58696;52.134;5.500;2023-04-25T09:26:20;101658.44;;;11.68;49.45
71043;BME280;58696;52.134;5.500;2023-04-25T09:29:06;101665.78;;;11.48;51.90
71043;BME280;58696;52.134;5.500;2023-04-25T09:31:33;101666.63;;;11.72;49.94
71043;BME280;58696;52.134;5.500;2023-04-25T09:34:00;101661.25;;;11.90;51.59
71043;BME280;58696;52.134;5.500;2023-04-25T09:36:30;101663.84;;;11.90;51.54
71043;BME280;58696;52.134;5.500;2023-04-25T09:38:59;101677.22;;;11.85;50.42
71043;BME280;58696;52.134;5.500;2023-04-25T09:41:32;101679.25;;;11.11;47.64
71043;BME280;58696;52.134;5.500;2023-04-25T09:44:06;101667.59;;;10.51;51.65
71043;BME280;58696;52.134;5.500;2023-04-25T09:46:37;101699.03;;;9.70;58.88
71043;BME280;58696;52.134;5.500;2023-04-25T09:49:07;101700.75;;;9.28;61.05
71043;BME280;58696;52.134;5.500;2023-04-25T09:51:36;101708.31;;;8.85;63.91
71043;BME280;58696;52.134;5.500;2023-04-25T09:54:05;101709.00;;;8.52;63.12
71043;BME280;58696;52.134;5.500;2023-04-25T09:56:36;101713.94;;;8.35;65.02
71043;BME280;58696;52.134;5.500;2023-04-25T09:59:05;101721.56;;;8.27;64.67
71043;BME280;58696;52.134;5.500;2023-04-25T10:01:33;101729.47;;;8.34;64.44
71043;BME280;58696;52.134;5.500;2023-04-25T10:04:04;101726.88;;;8.43;64.18
71043;BME280;58696;52.134;5.500;2023-04-25T10:06:34;101730.75;;;8.48;62.52
71043;BME280;58696;52.134;5.500;2023-04-25T10:09:01;101735.22;;;8.63;61.54
71043;BME280;58696;52.134;5.500;2023-04-25T10:11:30;101735.63;;;8.94;62.36
71043;BME280;58696;52.134;5.500;2023-04-25T10:13:58;101728.97;;;9.28;61.13
71043;BME280;58696;52.134;5.500;2023-04-25T10:16:28;101729.03;;;9.70;60.07
71043;BME280;58696;52.134;5.500;2023-04-25T10:18:56;101725.44;;;9.97;58.20
71043;BME280;58696;52.134;5.500;2023-04-25T10:21:23;101734.38;;;9.85;58.19
71043;BME280;58696;52.134;5.500;2023-04-25T10:23:55;101734.69;;;9.82;57.62
71043;BME280;58696;52.134;5.500;2023-04-25T10:26:23;101735.91;;;10.12;60.28
71043;BME280;58696;52.134;5.500;2023-04-25T10:29:00;101726.53;;;10.86;59.18
71043;BME280;58696;52.134;5.500;2023-04-25T10:31:30;101721.06;;;10.97;55.94
71043;BME280;58696;52.134;5.500;2023-04-25T10:33:57;101722.06;;;10.88;56.34
71043;BME280;58696;52.134;5.500;2023-04-25T10:36:24;101723.75;;;11.28;57.45
71043;BME280;58696;52.134;5.500;2023-04-25T10:38:55;101715.53;;;11.32;55.27
71043;BME280;58696;52.134;5.500;2023-04-25T10:41:24;101722.56;;;11.55;54.03
71043;BME280;58696;52.134;5.500;2023-04-25T10:43:59;101720.34;;;11.44;52.09
71043;BME280;58696;52.134;5.500;2023-04-25T10:46:28;101720.69;;;11.24;54.21
71043;BME280;58696;52.134;5.500;2023-04-25T10:48:58;101720.38;;;11.19;54.90
71043;BME280;58696;52.134;5.500;2023-04-25T10:51:31;101732.00;;;11.15;52.67
71043;BME280;58696;52.134;5.500;2023-04-25T10:54:21;101724.81;;;11.50;52.30
71043;BME280;58696;52.134;5.500;2023-04-25T10:56:53;101727.91;;;11.37;53.25
71043;BME280;58696;52.134;5.500;2023-04-25T10:59:24;101736.06;;;11.57;52.26
71043;BME280;58696;52.134;5.500;2023-04-25T11:01:53;101729.22;;;11.80;52.54
71043;BME280;58696;52.134;5.500;2023-04-25T11:04:30;101720.72;;;12.34;53.86
71043;BME280;58696;52.134;5.500;2023-04-25T11:10:01;101732.84;;;12.02;50.66
71043;BME280;58696;52.134;5.500;2023-04-25T11:12:32;101725.75;;;12.04;49.00
71043;BME280;58696;52.134;5.500;2023-04-25T11:15:02;101727.22;;;11.51;49.54
71043;BME280;58696;52.134;5.500;2023-04-25T11:17:32;101734.59;;;10.83;52.61
71043;BME280;58696;52.134;5.500;2023-04-25T11:20:01;101743.81;;;10.18;56.84
71043;BME280;58696;52.134;5.500;2023-04-25T11:22:35;101754.56;;;9.45;61.10
71043;BME280;58696;52.134;5.500;2023-04-25T11:25:06;101767.94;;;8.69;67.15
71043;BME280;58696;52.134;5.500;2023-04-25T11:27:33;101776.78;;;8.30;70.01
71043;BME280;58696;52.134;5.500;2023-04-25T11:30:14;101779.16;;;7.86;74.04
71043;BME280;58696;52.134;5.500;2023-04-25T11:32:45;101786.25;;;7.55;75.78
71043;BME280;58696;52.134;5.500;2023-04-25T11:35:14;101788.03;;;7.45;75.35
71043;BME280;58696;52.134;5.500;2023-04-25T11:37:42;101788.31;;;7.32;75.50
71043;BME280;58696;52.134;5.500;2023-04-25T11:40:10;101791.44;;;7.16;74.92
71043;BME280;58696;52.134;5.500;2023-04-25T11:42:43;101784.47;;;7.08;73.39
71043;BME280;58696;52.134;5.500;2023-04-25T11:45:10;101773.28;;;7.29;74.13
71043;BME280;58696;52.134;5.500;2023-04-25T11:47:37;101780.34;;;7.45;73.34
71043;BME280;58696;52.134;5.500;2023-04-25T11:50:06;101782.63;;;7.57;71.31
71043;BME280;58696;52.134;5.500;2023-04-25T11:52:40;101770.84;;;7.84;70.89
71043;BME280;58696;52.134;5.500;2023-04-25T11:57:41;101781.75;;;8.41;68.45
71043;BME280;58696;52.134;5.500;2023-04-25T12:00:12;101777.69;;;8.84;67.29
71043;BME280;58696;52.134;5.500;2023-04-25T12:02:46;101776.38;;;9.23;67.11
71043;BME280;58696;52.134;5.500;2023-04-25T12:05:15;101782.28;;;9.42;64.25
71043;BME280;58696;52.134;5.500;2023-04-25T12:08:12;101780.09;;;9.81;65.65
71043;BME280;58696;52.134;5.500;2023-04-25T12:10:45;101780.66;;;10.01;65.32
71043;BME280;58696;52.134;5.500;2023-04-25T12:15:49;101783.59;;;10.81;59.38
71043;BME280;58696;52.134;5.500;2023-04-25T12:18:24;101776.69;;;10.98;59.61
71043;BME280;58696;52.134;5.500;2023-04-25T12:20:54;101773.63;;;11.19;57.21
71043;BME280;58696;52.134;5.500;2023-04-25T12:23:30;101774.25;;;11.37;55.99
71043;BME280;58696;52.134;5.500;2023-04-25T12:25:56;101785.19;;;11.23;58.28
71043;BME280;58696;52.134;5.500;2023-04-25T12:28:25;101786.34;;;10.96;59.25
71043;BME280;58696;52.134;5.500;2023-04-25T12:31:05;101785.22;;;10.98;58.54
71043;BME280;58696;52.134;5.500;2023-04-25T12:33:36;101786.63;;;11.33;58.26
71043;BME280;58696;52.134;5.500;2023-04-25T12:36:06;101780.34;;;11.44;56.40
71043;BME280;58696;52.134;5.500;2023-04-25T12:38:41;101792.44;;;10.87;58.10
71043;BME280;58696;52.134;5.500;2023-04-25T12:41:08;101793.56;;;10.68;59.03
71043;BME280;58696;52.134;5.500;2023-04-25T12:43:35;101787.56;;;10.43;56.89
71043;BME280;58696;52.134;5.500;2023-04-25T12:46:02;101791.16;;;10.74;58.97
71043;BME280;58696;52.134;5.500;2023-04-25T12:48:29;101784.53;;;11.37;61.02
71043;BME280;58696;52.134;5.500;2023-04-25T12:50:58;101790.03;;;11.90;55.26
71043;BME280;58696;52.134;5.500;2023-04-25T12:53:27;101790.31;;;11.47;53.70
71043;BME280;58696;52.134;5.500;2023-04-25T12:55:53;101795.63;;;11.29;52.06
71043;BME280;58696;52.134;5.500;2023-04-25T12:58:23;101793.75;;;11.15;51.08
71043;BME280;58696;52.134;5.500;2023-04-25T13:00:52;101793.00;;;11.62;49.52
71043;BME280;58696;52.134;5.500;2023-04-25T13:03:19;101787.88;;;11.46;49.68
71043;BME280;58696;52.134;5.500;2023-04-25T13:05:49;101796.59;;;11.28;50.52
71043;BME280;58696;52.134;5.500;2023-04-25T13:08:16;101791.97;;;11.07;46.45
71043;BME280;58696;52.134;5.500;2023-04-25T13:10:43;101790.66;;;10.79;47.31
71043;BME280;58696;52.134;5.500;2023-04-25T13:13:09;101794.38;;;11.25;48.73
71043;BME280;58696;52.134;5.500;2023-04-25T13:15:36;101791.44;;;11.45;47.33
71043;BME280;58696;52.134;5.500;2023-04-25T13:18:07;101796.09;;;11.41;50.51